Time;durP1;ratioP1;P1;durP2;ratioP2;P2;SDS_P1;SDS_P2;PMS_P1;PMS_P2;Temp;Humidity;BMP_temperature;BMP_pressure;BME280_temperature;BME280_humidity;BME280_pressure;Samples;Min_cycle;Max_cycle;Signal;HPM_P1;HPM_P2
2024/03/19 00:00:16;;;;;;;;;26.25;23.50;;;;;18.04;100.00;101104.94;2107591;27;45881;-60
2024/03/19 00:01:17;;;;;;;;;21.40;21.40;;;;;18.03;100.00;101106.75;2104607;27;46756;-58
2024/03/19 00:02:18;;;;;;;;;23.00;22.50;;;;;18.02;100.00;101105.03;2106703;27;46389;-60
2024/03/19 00:03:18;;;;;;;;;22.00;20.50;;;;;18.01;100.00;101100.59;2105853;27;46652;-59
2024/03/19 00:04:18;;;;;;;;;21.25;20.00;;;;;18.00;100.00;101098.84;2107615;27;46850;-57
2024/03/19 00:05:20;;;;;;;;;24.00;22.00;;;;;17.99;100.00;101105.16;2105675;27;46195;-56
2024/03/19 00:06:21;;;;;;;;;22.80;20.20;;;;;17.97;100.00;101108.88;2106963;27;46860;-58
2024/03/19 00:07:21;;;;;;;;;25.00;20.40;;;;;17.91;100.00;101102.88;2106984;27;46774;-58
2024/03/19 00:08:21;;;;;;;;;24.50;21.75;;;;;17.91;100.00;101110.91;2107968;27;45203;-59
2024/03/19 00:09:22;;;;;;;;;20.75;18.50;;;;;17.91;100.00;101104.66;2105255;27;47173;-59
2024/03/19 00:10:22;;;;;;;;;24.00;23.75;;;;;17.90;100.00;101102.91;2107766;27;46312;-58
2024/03/19 00:11:23;;;;;;;;;25.25;24.25;;;;;17.90;100.00;101102.91;2105161;27;46238;-60
2024/03/19 00:12:26;;;;;;;;;30.50;29.00;;;;;17.92;100.00;101103.72;2106352;27;46329;-60
2024/03/19 00:13:27;;;;;;;;;21.80;19.80;;;;;17.92;100.00;101104.59;2106356;27;46725;-59
2024/03/19 00:14:28;;;;;;;;;28.50;27.75;;;;;17.93;100.00;101094.72;2107341;27;46531;-59
2024/03/19 00:15:29;;;;;;;;;32.80;30.60;;;;;17.92;100.00;101104.59;2106645;27;46585;-60
2024/03/19 00:16:29;;;;;;;;;43.00;34.25;;;;;17.90;100.00;101106.47;2107652;27;46355;-59
2024/03/19 00:17:30;;;;;;;;;36.50;33.50;;;;;17.88;100.00;101100.28;2104057;27;46152;-58
2024/03/19 00:18:30;;;;;;;;;40.25;33.50;;;;;17.85;100.00;101099.56;2106787;27;46400;-59
2024/03/19 00:19:30;;;;;;;;;39.25;32.25;;;;;17.82;100.00;101097.91;2106883;27;46249;-59
2024/03/19 00:20:31;;;;;;;;;36.50;32.75;;;;;17.84;100.00;101095.16;2107309;27;46442;-57
2024/03/19 00:21:31;;;;;;;;;36.75;32.50;;;;;17.80;100.00;101097.09;2106809;27;46794;-58
2024/03/19 00:22:32;;;;;;;;;35.50;31.75;;;;;17.83;100.00;101096.97;2107104;27;46369;-59
2024/03/19 00:23:32;;;;;;;;;39.20;34.40;;;;;17.84;100.00;101098.69;2105506;27;46931;-57
2024/03/19 00:24:33;;;;;;;;;42.25;35.75;;;;;17.80;100.00;101101.59;2106790;27;47167;-59
2024/03/19 00:25:35;;;;;;;;;45.20;38.40;;;;;17.79;100.00;101095.38;2106285;27;46801;-58
2024/03/19 00:26:36;;;;;;;;;43.80;36.60;;;;;17.83;100.00;101096.97;2107227;27;47009;-54
2024/03/19 00:27:36;;;;;;;;;41.75;35.25;;;;;17.84;100.00;101096.00;2106032;27;46392;-57
2024/03/19 00:28:38;;;;;;;;;46.00;38.00;;;;;17.83;100.00;101096.97;2107116;27;46554;-60
2024/03/19 00:29:40;;;;;;;;;44.00;37.00;;;;;17.83;100.00;101101.47;2104678;27;46335;-59
2024/03/19 00:30:40;;;;;;;;;39.00;33.80;;;;;17.80;100.00;101104.28;2106776;27;46512;-58
2024/03/19 00:31:40;;;;;;;;;38.25;33.25;;;;;17.78;100.00;101101.66;2105547;27;46312;-60
2024/03/19 00:32:41;;;;;;;;;36.00;32.00;;;;;17.77;100.00;101096.34;2107318;27;47217;-57
2024/03/19 00:33:41;;;;;;;;;40.50;34.25;;;;;17.77;100.00;101105.28;2105400;27;46587;-58
2024/03/19 00:34:42;;;;;;;;;42.00;35.00;;;;;17.77;100.00;101101.72;2105858;27;46018;-56
2024/03/19 00:35:42;;;;;;;;;36.25;33.00;;;;;17.78;100.00;101106.16;2105707;27;46308;-59
2024/03/19 00:36:43;;;;;;;;;45.00;37.75;;;;;17.78;100.00;101106.16;2104273;27;46329;-57
2024/03/19 00:37:44;;;;;;;;;45.20;38.00;;;;;17.77;100.00;101097.22;2106702;27;46534;-58
2024/03/19 00:38:44;;;;;;;;;42.75;35.75;;;;;17.75;100.00;101101.78;2106675;27;46325;-59
2024/03/19 00:39:45;;;;;;;;;45.00;36.75;;;;;17.73;100.00;101102.81;2106101;27;46869;-58
2024/03/19 00:40:45;;;;;;;;;47.75;39.00;;;;;17.73;100.00;101100.13;2107261;27;47011;-59
2024/03/19 00:41:46;;;;;;;;;45.75;39.00;;;;;17.71;100.00;101105.56;2106992;27;46481;-57
2024/03/19 00:42:46;;;;;;;;;42.00;34.50;;;;;17.70;100.00;101108.31;2108063;27;46578;-57
2024/03/19 00:43:46;;;;;;;;;50.50;40.25;;;;;17.70;100.00;101101.13;2105570;27;47142;-57
2024/03/19 00:44:47;;;;;;;;;43.00;36.75;;;;;17.70;100.00;101109.19;2106813;27;46656;-58
2024/03/19 00:45:47;;;;;;;;;49.50;41.50;;;;;17.69;100.00;101101.22;2106397;27;46308;-59
2024/03/19 00:46:48;;;;;;;;;45.50;37.00;;;;;17.69;100.00;101106.59;2106525;27;46740;-58
2024/03/19 00:47:48;;;;;;;;;36.75;32.00;;;;;17.68;100.00;101110.19;2105177;27;47064;-58
2024/03/19 00:48:49;;;;;;;;;44.75;36.50;;;;;17.65;100.00;101106.66;2107345;27;47270;-59
2024/03/19 00:49:49;;;;;;;;;42.75;36.75;;;;;17.71;100.00;101099.31;2104913;27;46124;-58
2024/03/19 00:50:49;;;;;;;;;42.00;34.25;;;;;17.69;100.00;101107.44;2106241;27;46618;-60
2024/03/19 00:51:50;;;;;;;;;45.50;37.00;;;;;17.70;100.00;101100.28;2106530;27;46385;-58
2024/03/19 00:52:51;;;;;;;;;38.25;33.75;;;;;17.69;100.00;101109.28;2107074;27;46759;-59
2024/03/19 00:53:51;;;;;;;;;42.75;35.50;;;;;17.69;100.00;101101.22;2103728;27;46761;-59
2024/03/19 00:54:52;;;;;;;;;42.00;34.00;;;;;17.68;100.00;101105.69;2106581;27;46303;-56
2024/03/19 00:55:52;;;;;;;;;42.25;35.25;;;;;17.68;100.00;101110.19;2105973;27;46272;-59
2024/03/19 00:56:53;;;;;;;;;41.00;36.25;;;;;17.63;100.00;101108.53;2106669;27;46808;-62
2024/03/19 00:57:53;;;;;;;;;34.50;30.75;;;;;17.67;100.00;101108.44;2106226;27;46007;-60
2024/03/19 00:58:53;;;;;;;;;44.00;34.75;;;;;17.64;100.00;101101.38;2107673;27;46894;-59
2024/03/19 00:59:54;;;;;;;;;36.50;31.50;;;;;17.65;100.00;101100.41;2105794;27;46603;-58
2024/03/19 01:00:54;;;;;;;;;32.25;29.00;;;;;17.67;100.00;101105.75;2106680;27;45739;-58
2024/03/19 01:01:55;;;;;;;;;34.75;30.50;;;;;17.67;100.00;101103.06;2106619;27;46317;-60
2024/03/19 01:02:55;;;;;;;;;32.75;29.75;;;;;17.65;100.00;101095.06;2106427;27;46411;-57
2024/03/19 01:03:55;;;;;;;;;32.00;29.25;;;;;17.64;100.00;101093.31;2106450;27;47748;-58
2024/03/19 01:04:56;;;;;;;;;37.75;32.50;;;;;17.63;100.00;101088.88;2106570;27;46225;-59
2024/03/19 01:05:57;;;;;;;;;34.20;31.20;;;;;17.61;100.00;101098.81;2105969;27;46763;-60
2024/03/19 01:06:57;;;;;;;;;34.00;30.00;;;;;17.59;100.00;101100.72;2108051;27;45920;-59
2024/03/19 01:07:57;;;;;;;;;33.50;31.00;;;;;17.57;100.00;101100.78;2105009;27;46670;-57
2024/03/19 01:08:58;;;;;;;;;33.75;28.75;;;;;17.54;100.00;101095.56;2107597;27;46291;-57
2024/03/19 01:09:58;;;;;;;;;28.50;26.25;;;;;17.52;100.00;101094.72;2105974;27;45921;-59
2024/03/19 01:11:02;;;;;;;;;28.75;26.75;;;;;17.52;100.00;101099.22;2105195;27;46400;-59
2024/03/19 01:12:03;;;;;;;;;27.00;25.00;;;;;17.50;100.00;101096.63;2107860;27;46262;-58
2024/03/19 01:13:05;;;;;;;;;21.25;21.00;;;;;17.50;100.00;101093.94;2106263;27;46696;-57
2024/03/19 01:14:05;;;;;;;;;28.80;26.40;;;;;17.50;100.00;101101.13;2106245;27;46920;-58
2024/03/19 01:15:06;;;;;;;;;22.25;22.25;;;;;17.51;100.00;101100.16;2105517;27;46675;-57
2024/03/19 01:16:07;;;;;;;;;25.00;24.75;;;;;17.50;100.00;101098.44;2107763;27;46502;-59
2024/03/19 01:17:08;;;;;;;;;25.20;24.40;;;;;17.48;100.00;101103.00;2107133;27;46226;-58
2024/03/19 01:18:08;;;;;;;;;26.75;23.50;;;;;17.47;100.00;101095.88;2107181;27;46220;-60
2024/03/19 01:19:08;;;;;;;;;25.50;24.50;;;;;17.45;100.00;101098.66;2105061;27;46643;-60
2024/03/19 01:20:12;;;;;;;;;27.00;24.25;;;;;17.44;100.00;101096.03;2104606;27;46258;-59
2024/03/19 01:21:13;;;;;;;;;25.00;24.00;;;;;17.42;100.00;101095.22;2105179;27;46748;-60
2024/03/19 01:22:13;;;;;;;;;23.25;21.75;;;;;17.41;100.00;101091.69;2106612;27;46239;-60
2024/03/19 01:23:13;;;;;;;;;22.25;21.50;;;;;17.38;100.00;101094.47;2105723;27;46639;-61
2024/03/19 01:24:14;;;;;;;;;28.00;22.75;;;;;17.39;100.00;101088.16;2107924;27;46615;-61
2024/03/19 01:25:14;;;;;;;;;25.00;23.50;;;;;17.39;100.00;101092.66;2106341;27;46249;-59
2024/03/19 01:26:15;;;;;;;;;29.25;27.75;;;;;17.37;100.00;101090.06;2105805;27;46686;-61
2024/03/19 01:27:15;;;;;;;;;25.25;25.00;;;;;17.36;100.00;101089.19;2105985;27;46321;-60
2024/03/19 01:28:15;;;;;;;;;26.00;24.50;;;;;17.38;100.00;101090.91;2107517;27;46494;-59
2024/03/19 01:29:16;;;;;;;;;26.50;26.00;;;;;17.37;100.00;101092.72;2105624;27;46195;-57
2024/03/19 01:30:17;;;;;;;;;24.75;24.00;;;;;17.39;100.00;101092.66;2107616;27;46510;-59
2024/03/19 01:31:17;;;;;;;;;25.25;23.50;;;;;17.36;100.00;101091.84;2105605;27;46233;-61
2024/03/19 01:32:18;;;;;;;;;23.25;21.75;;;;;17.37;100.00;101090.06;2107474;27;46481;-59
2024/03/19 01:33:18;;;;;;;;;24.20;21.60;;;;;17.39;100.00;101089.97;2106344;27;46557;-60
2024/03/19 01:34:19;;;;;;;;;28.50;26.50;;;;;17.38;100.00;101089.09;2106903;27;46335;-60
2024/03/19 01:35:19;;;;;;;;;28.75;28.00;;;;;17.36;100.00;101091.84;2105557;27;46628;-57
2024/03/19 01:36:19;;;;;;;;;24.50;24.50;;;;;17.35;100.00;101090.13;2106742;27;46616;-58
2024/03/19 01:37:20;;;;;;;;;24.00;23.75;;;;;17.34;100.00;101088.38;2106081;27;46756;-58
2024/03/19 01:38:24;;;;;;;;;26.75;26.50;;;;;17.33;100.00;101083.94;2107116;27;46692;-59
2024/03/19 01:39:24;;;;;;;;;25.80;24.20;;;;;17.32;100.00;101087.56;2105532;27;46819;-58
2024/03/19 01:40:24;;;;;;;;;24.00;23.75;;;;;17.33;100.00;101086.63;2107539;27;46695;-58
2024/03/19 01:41:25;;;;;;;;;24.00;24.00;;;;;17.33;100.00;101083.94;2106153;27;45200;-60
2024/03/19 01:42:25;;;;;;;;;24.75;23.25;;;;;17.32;100.00;101082.22;2105256;27;46440;-58
2024/03/19 01:43:25;;;;;;;;;22.25;20.75;;;;;17.32;100.00;101076.84;2102019;27;46097;-55
2024/03/19 01:44:26;;;;;;;;;25.00;24.75;;;;;17.32;100.00;101084.03;2102476;27;46548;-60
2024/03/19 01:45:26;;;;;;;;;27.75;24.75;;;;;17.31;100.00;101075.09;2105448;27;46707;-60
2024/03/19 01:46:28;;;;;;;;;28.25;26.00;;;;;17.32;100.00;101076.84;2108162;27;46364;-59
2024/03/19 01:47:29;;;;;;;;;22.80;22.80;;;;;17.31;100.00;101072.44;2105716;27;46450;-59
2024/03/19 01:48:29;;;;;;;;;24.75;23.75;;;;;17.31;100.00;101077.78;2106880;27;46307;-59
2024/03/19 01:49:30;;;;;;;;;21.75;21.25;;;;;17.30;100.00;101081.41;2105698;27;47298;-58
2024/03/19 01:50:31;;;;;;;;;27.40;26.00;;;;;17.29;100.00;101076.13;2105956;27;46996;-60
2024/03/19 01:51:32;;;;;;;;;24.25;24.00;;;;;17.29;100.00;101078.81;2105983;27;46306;-57
2024/03/19 01:52:35;;;;;;;;;28.75;23.50;;;;;17.28;100.00;101075.25;2107083;27;46505;-60
2024/03/19 01:53:36;;;;;;;;;26.80;25.60;;;;;17.25;100.00;101072.69;2104739;27;46586;-60
2024/03/19 01:54:36;;;;;;;;;27.25;26.00;;;;;17.25;100.00;101078.03;2107014;27;46884;-58
2024/03/19 01:55:37;;;;;;;;;25.00;23.50;;;;;17.24;100.00;101067.38;2105142;27;46548;-60
2024/03/19 01:56:38;;;;;;;;;26.75;25.00;;;;;17.25;100.00;101069.13;2100320;27;45048;-61
2024/03/19 01:57:38;;;;;;;;;26.00;25.20;;;;;17.26;100.00;101070.88;2100724;27;46600;-57
2024/03/19 01:58:39;;;;;;;;;29.00;27.00;;;;;17.25;100.00;101072.69;2105418;27;46311;-60
2024/03/19 01:59:40;;;;;;;;;27.25;26.75;;;;;17.28;100.00;101074.38;2105538;27;46463;-61
2024/03/19 02:00:41;;;;;;;;;26.80;24.00;;;;;17.29;100.00;101068.06;2106614;27;46605;-59
2024/03/19 02:01:41;;;;;;;;;26.00;24.75;;;;;17.28;100.00;101069.00;2106480;27;46228;-59
2024/03/19 02:02:41;;;;;;;;;29.50;26.50;;;;;17.29;100.00;101070.75;2106711;27;46124;-61
2024/03/19 02:03:46;;;;;;;;;27.00;27.00;;;;;17.30;100.00;101073.38;2106191;27;46248;-60
2024/03/19 02:04:46;;;;;;;;;26.00;26.00;;;;;17.30;100.00;101076.03;2106218;27;46573;-61
2024/03/19 02:05:47;;;;;;;;;27.00;25.75;;;;;17.29;100.00;101068.94;2105809;27;46580;-59
2024/03/19 02:06:47;;;;;;;;;27.50;27.00;;;;;17.31;100.00;101077.78;2105984;27;46754;-59
2024/03/19 02:07:47;;;;;;;;;26.25;25.25;;;;;17.34;100.00;101071.41;2098932;27;46933;-61
2024/03/19 02:08:56;;;;;;;;;33.00;28.75;;;;;17.35;100.00;101074.03;2102652;27;46547;-61
2024/03/19 02:09:57;;;;;;;;;28.60;27.60;;;;;17.34;100.00;101061.56;2105478;27;46417;-61
2024/03/19 02:10:57;;;;;;;;;28.50;27.75;;;;;17.33;100.00;101070.53;2106510;27;46343;-61
2024/03/19 02:12:00;;;;;;;;;29.00;26.00;;;;;17.34;100.00;101069.59;2105119;27;46219;-58
2024/03/19 02:13:00;;;;;;;;;27.80;26.80;;;;;17.33;100.00;101067.00;2106685;27;46676;-59
2024/03/19 02:14:02;;;;;;;;;25.00;24.00;;;;;17.34;100.00;101066.03;2102323;27;46614;-60
2024/03/19 02:15:03;;;;;;;;;28.40;26.80;;;;;17.32;100.00;101063.44;2098163;27;46917;-61
2024/03/19 02:16:03;;;;;;;;;32.00;28.00;;;;;17.32;100.00;101067.94;2106192;27;46625;-62
2024/03/19 02:17:05;;;;;;;;;30.50;29.00;;;;;17.32;100.00;101071.47;2105293;27;46899;-59
2024/03/19 02:18:06;;;;;;;;;26.80;25.60;;;;;17.31;100.00;101072.44;2106059;27;46636;-58
2024/03/19 02:19:09;;;;;;;;;32.60;29.00;;;;;17.30;100.00;101070.69;2102915;27;46878;-59
2024/03/19 02:20:12;;;;;;;;;28.40;27.80;;;;;17.29;100.00;101065.38;2105511;27;47008;-58
2024/03/19 02:21:13;;;;;;;;;29.00;29.00;;;;;17.28;100.00;101066.34;2105223;27;46881;-59
2024/03/19 02:22:14;;;;;;;;;28.25;27.75;;;;;17.26;100.00;101066.38;2106682;27;46306;-59
2024/03/19 02:23:15;;;;;;;;;26.80;25.20;;;;;17.23;100.00;101071.88;2105079;27;45459;-60
2024/03/19 02:24:15;;;;;;;;;25.40;23.80;;;;;17.25;100.00;101066.44;2106540;27;46535;-58
2024/03/19 02:25:16;;;;;;;;;25.75;23.75;;;;;17.24;100.00;101072.75;2105608;27;46377;-58
2024/03/19 02:26:17;;;;;;;;;24.00;23.40;;;;;17.23;100.00;101077.25;2105334;27;46982;-59
2024/03/19 02:27:18;;;;;;;;;31.80;29.60;;;;;17.22;100.00;101077.31;2105440;27;46618;-61
2024/03/19 02:28:18;;;;;;;;;25.25;25.25;;;;;17.22;100.00;101075.50;2106364;27;46742;-59
2024/03/19 02:29:18;;;;;;;;;28.00;26.00;;;;;17.21;100.00;101072.88;2105580;27;46816;-60
2024/03/19 02:30:19;;;;;;;;;24.50;23.75;;;;;17.22;100.00;101078.19;2106738;27;46319;-59
2024/03/19 02:31:19;;;;;;;;;24.50;24.00;;;;;17.22;100.00;101071.94;2105694;27;47005;-58
2024/03/19 02:32:20;;;;;;;;;24.50;24.00;;;;;17.20;100.00;101073.84;2105316;27;46642;-58
2024/03/19 02:33:20;;;;;;;;;23.25;23.25;;;;;17.19;100.00;101078.31;2104645;27;46716;-58
2024/03/19 02:34:20;;;;;;;;;22.50;22.50;;;;;17.17;100.00;101076.66;2106728;27;46586;-59
2024/03/19 02:35:21;;;;;;;;;22.50;20.75;;;;;17.16;100.00;101069.53;2105137;27;46278;-60
2024/03/19 02:36:22;;;;;;;;;24.75;23.50;;;;;17.17;100.00;101066.78;2105641;27;46287;-59
2024/03/19 02:37:22;;;;;;;;;23.80;23.60;;;;;17.33;100.00;101067.84;2105126;27;46527;-58
2024/03/19 02:38:24;;;;;;;;;21.50;19.25;;;;;17.23;100.00;101073.69;2107678;27;46251;-58
2024/03/19 02:39:24;;;;;;;;;24.00;23.00;;;;;17.22;100.00;101067.44;2104644;27;46804;-58
2024/03/19 02:40:25;;;;;;;;;26.75;25.00;;;;;17.22;100.00;101070.13;2105634;27;46084;-58
2024/03/19 02:41:25;;;;;;;;;24.75;23.75;;;;;17.22;100.00;101067.44;2104806;27;46873;-59
2024/03/19 02:42:26;;;;;;;;;25.00;22.00;;;;;17.22;100.00;101072.81;2106633;27;45591;-58
2024/03/19 02:43:27;;;;;;;;;25.25;25.25;;;;;17.22;100.00;101070.13;2105646;27;46583;-58
2024/03/19 02:44:27;;;;;;;;;22.40;20.00;;;;;17.23;100.00;101065.66;2105763;27;46615;-59
2024/03/19 02:45:29;;;;;;;;;24.00;24.00;;;;;17.22;100.00;101069.25;2105383;27;46318;-59
2024/03/19 02:46:29;;;;;;;;;25.80;23.80;;;;;17.20;100.00;101065.78;2110418;27;46427;-59
2024/03/19 02:47:29;;;;;;;;;25.75;23.00;;;;;17.14;100.00;101066.91;2109162;27;46233;-58
2024/03/19 02:48:30;;;;;;;;;25.25;21.25;;;;;17.14;100.00;101066.03;2104774;27;46265;-58
2024/03/19 02:49:30;;;;;;;;;25.00;22.25;;;;;17.16;100.00;101065.06;2105269;27;46295;-58
2024/03/19 02:50:30;;;;;;;;;19.00;18.00;;;;;17.16;100.00;101067.72;2106331;27;46325;-61
2024/03/19 02:51:31;;;;;;;;;24.25;22.75;;;;;17.16;100.00;101070.41;2104514;27;46200;-56
2024/03/19 02:52:32;;;;;;;;;19.80;18.20;;;;;17.16;100.00;101061.50;2104675;27;46540;-58
2024/03/19 02:53:32;;;;;;;;;22.00;20.50;;;;;17.16;100.00;101073.09;2105384;27;46234;-60
2024/03/19 02:54:32;;;;;;;;;22.50;22.50;;;;;17.16;100.00;101069.53;2107226;27;47179;-57
2024/03/19 02:55:33;;;;;;;;;17.75;16.25;;;;;17.14;100.00;101066.91;2104647;27;45572;-59
2024/03/19 02:56:33;;;;;;;;;24.00;23.50;;;;;17.14;100.00;101064.22;2105744;27;46340;-60
2024/03/19 02:57:33;;;;;;;;;28.25;25.75;;;;;17.14;100.00;101064.22;2105832;27;47287;-60
2024/03/19 02:58:34;;;;;;;;;21.75;21.75;;;;;17.15;100.00;101065.09;2105886;27;46719;-59
2024/03/19 02:59:34;;;;;;;;;22.25;21.75;;;;;17.16;100.00;101065.06;2105899;27;45915;-60
2024/03/19 03:00:36;;;;;;;;;22.00;22.00;;;;;17.17;100.00;101065.94;2106241;27;46584;-58
2024/03/19 03:01:36;;;;;;;;;24.20;22.40;;;;;17.14;100.00;101069.59;2104079;27;46570;-59
2024/03/19 03:02:37;;;;;;;;;24.75;23.50;;;;;17.09;100.00;101070.72;2105815;27;46303;-59
2024/03/19 03:03:38;;;;;;;;;20.50;19.50;;;;;17.08;100.00;101066.31;2103937;27;46706;-60
2024/03/19 03:04:38;;;;;;;;;24.75;22.00;;;;;17.13;100.00;101069.66;2106958;27;46804;-60
2024/03/19 03:05:43;;;;;;;;;21.25;19.00;;;;;17.14;100.00;101071.41;2106892;27;46539;-60
2024/03/19 03:06:43;;;;;;;;;24.40;22.00;;;;;17.10;100.00;101073.34;2106444;27;46540;-57
2024/03/19 03:07:43;;;;;;;;;21.00;19.00;;;;;17.09;100.00;101068.94;2105031;27;46698;-57
2024/03/19 03:08:44;;;;;;;;;26.00;22.25;;;;;17.11;100.00;101068.84;2106601;27;46588;-58
2024/03/19 03:09:44;;;;;;;;;22.25;21.75;;;;;17.09;100.00;101066.25;2105320;27;46289;-59
2024/03/19 03:10:44;;;;;;;;;25.25;21.75;;;;;17.10;100.00;101075.16;2106988;27;46848;-59
2024/03/19 03:11:44;;;;;;;;;27.00;24.00;;;;;17.09;100.00;101079.66;2105202;27;46238;-58
2024/03/19 03:12:45;;;;;;;;;25.50;23.00;;;;;17.08;100.00;101066.31;2105729;27;46281;-59
2024/03/19 03:13:45;;;;;;;;;21.50;21.50;;;;;17.08;100.00;101069.00;2104384;27;46234;-59
2024/03/19 03:14:45;;;;;;;;;23.50;21.25;;;;;17.06;100.00;101071.75;2106016;27;46750;-57
2024/03/19 03:15:46;;;;;;;;;22.00;22.00;;;;;17.07;100.00;101076.16;2105279;27;46466;-60
2024/03/19 03:16:46;;;;;;;;;25.50;24.50;;;;;17.06;100.00;101077.97;2105990;27;46663;-59
2024/03/19 03:17:46;;;;;;;;;23.25;22.00;;;;;17.05;100.00;101073.56;2105480;27;46779;-61
2024/03/19 03:18:47;;;;;;;;;21.75;20.25;;;;;17.05;100.00;101076.25;2106510;27;46558;-59
2024/03/19 03:19:47;;;;;;;;;25.75;24.50;;;;;17.05;100.00;101080.72;2104453;27;47177;-59
2024/03/19 03:20:48;;;;;;;;;25.50;24.50;;;;;17.06;100.00;101082.47;2106432;27;46435;-57
2024/03/19 03:21:48;;;;;;;;;22.00;21.00;;;;;17.05;100.00;101076.25;2105032;27;45774;-59
2024/03/19 03:22:48;;;;;;;;;22.25;21.50;;;;;17.03;100.00;101075.44;2105202;27;46618;-59
2024/03/19 03:23:49;;;;;;;;;22.50;22.50;;;;;17.15;100.00;101075.81;2105181;27;46724;-60
2024/03/19 03:24:50;;;;;;;;;22.00;22.00;;;;;17.17;100.00;101073.97;2105670;27;46841;-59
2024/03/19 03:25:50;;;;;;;;;22.40;21.40;;;;;17.18;100.00;101078.41;2105303;27;46366;-58
2024/03/19 03:26:50;;;;;;;;;22.75;19.75;;;;;17.18;100.00;101071.22;2104754;27;46380;-59
2024/03/19 03:27:52;;;;;;;;;21.50;21.00;;;;;17.25;100.00;101080.72;2105153;27;46115;-58
2024/03/19 03:28:52;;;;;;;;;21.60;21.60;;;;;17.26;100.00;101074.41;2105438;27;46835;-59
2024/03/19 03:29:52;;;;;;;;;23.75;21.25;;;;;17.26;100.00;101074.41;2090889;28;46452;-59
2024/03/19 03:30:53;;;;;;;;;23.50;21.75;;;;;17.28;100.00;101077.94;2090698;28;45958;-59
2024/03/19 03:31:53;;;;;;;;;19.50;18.75;;;;;17.27;100.00;101073.47;2105554;27;46650;-60
2024/03/19 03:32:53;;;;;;;;;24.75;21.00;;;;;17.02;100.00;101073.69;2100223;27;45631;-59
2024/03/19 03:33:54;;;;;;;;;22.50;20.00;;;;;17.24;100.00;101078.13;2099516;27;46757;-60
2024/03/19 03:34:54;;;;;;;;;16.25;16.25;;;;;17.29;100.00;101070.75;2106878;27;46560;-60
2024/03/19 03:35:54;;;;;;;;;20.25;19.75;;;;;17.31;100.00;101076.91;2104610;27;46493;-59
2024/03/19 03:36:55;;;;;;;;;21.25;21.00;;;;;17.31;100.00;101077.78;2106617;27;46280;-59
2024/03/19 03:37:55;;;;;;;;;20.00;18.00;;;;;17.30;100.00;101080.53;2105246;27;46314;-60
2024/03/19 03:38:55;;;;;;;;;25.50;23.25;;;;;17.29;100.00;101078.81;2101366;27;47050;-59
2024/03/19 03:39:56;;;;;;;;;22.00;21.00;;;;;17.26;100.00;101079.78;2106398;27;46366;-58
2024/03/19 03:40:57;;;;;;;;;24.20;21.00;;;;;17.34;100.00;101082.16;2106499;27;46916;-59
2024/03/19 03:41:57;;;;;;;;;23.00;21.50;;;;;17.32;100.00;101079.53;2104847;27;46292;-59
2024/03/19 03:42:59;;;;;;;;;21.75;20.00;;;;;17.38;100.00;101078.38;2106781;27;46249;-59
2024/03/19 03:43:59;;;;;;;;;22.40;21.60;;;;;17.39;100.00;101076.56;2105387;27;46685;-59
2024/03/19 03:44:59;;;;;;;;;23.75;20.75;;;;;17.40;100.00;101081.00;2106357;27;46725;-58
2024/03/19 03:46:00;;;;;;;;;20.75;19.00;;;;;17.39;100.00;101085.47;2104948;27;46197;-57
2024/03/19 03:47:00;;;;;;;;;21.50;19.50;;;;;17.23;100.00;101087.97;2105538;27;46480;-58
2024/03/19 03:48:01;;;;;;;;;24.00;22.50;;;;;17.19;100.00;101083.69;2106222;27;46832;-59
2024/03/19 03:49:01;;;;;;;;;25.50;24.75;;;;;17.19;100.00;101085.50;2104845;27;46497;-57
2024/03/19 03:50:01;;;;;;;;;24.25;22.00;;;;;17.19;100.00;101080.13;2105072;27;46171;-59
2024/03/19 03:51:02;;;;;;;;;25.50;23.75;;;;;17.17;100.00;101080.22;2098831;27;46479;-56
2024/03/19 03:52:02;;;;;;;;;22.25;22.25;;;;;17.15;100.00;101079.41;2098596;27;46730;-56
2024/03/19 03:53:02;;;;;;;;;25.50;24.00;;;;;17.15;100.00;101082.09;2104568;27;46538;-59
2024/03/19 03:54:03;;;;;;;;;22.25;22.25;;;;;17.16;100.00;101088.31;2104904;27;46839;-59
2024/03/19 03:55:09;;;;;;;;;20.25;19.25;;;;;17.23;100.00;101079.06;2105581;27;46813;-59
2024/03/19 03:56:09;;;;;;;;;27.60;25.60;;;;;17.17;100.00;101074.84;2103910;27;46689;-60
2024/03/19 03:57:09;;;;;;;;;28.75;24.25;;;;;17.17;100.00;101077.53;2105161;27;46629;-58
2024/03/19 03:58:10;;;;;;;;;23.00;21.00;;;;;17.27;100.00;101077.97;2106297;27;46176;-59
2024/03/19 03:59:10;;;;;;;;;20.50;18.75;;;;;17.32;100.00;101075.97;2104327;27;46427;-59
2024/03/19 04:00:17;;;;;;;;;22.50;22.50;;;;;17.21;100.00;101078.25;2105839;27;46851;-59
2024/03/19 04:01:18;;;;;;;;;24.00;24.00;;;;;17.19;100.00;101078.31;2098587;27;46335;-59
2024/03/19 04:02:19;;;;;;;;;22.25;22.25;;;;;17.17;100.00;101082.88;2100806;27;45986;-60
2024/03/19 04:03:19;;;;;;;;;24.00;24.00;;;;;17.30;100.00;101078.72;2099082;27;45676;-59
2024/03/19 04:04:20;;;;;;;;;24.25;23.00;;;;;17.35;100.00;101076.72;2101361;27;46705;-59
2024/03/19 04:05:21;;;;;;;;;24.20;23.40;;;;;17.38;100.00;101080.19;2103897;27;46544;-59
2024/03/19 04:06:21;;;;;;;;;23.25;23.00;;;;;17.38;100.00;101082.88;2106032;27;45997;-58
2024/03/19 04:07:21;;;;;;;;;27.75;25.25;;;;;17.39;100.00;101077.44;2105042;27;45705;-56
2024/03/19 04:08:22;;;;;;;;;22.50;21.50;;;;;17.40;100.00;101086.34;2105144;27;45451;-59
2024/03/19 04:09:22;;;;;;;;;27.00;27.00;;;;;17.40;100.00;101081.00;2103952;27;46286;-58
2024/03/19 04:10:23;;;;;;;;;24.50;23.25;;;;;17.41;100.00;101085.44;2089734;28;46121;-58
2024/03/19 04:11:23;;;;;;;;;25.00;23.00;;;;;17.40;100.00;101089.03;2090478;28;46446;-60
2024/03/19 04:12:23;;;;;;;;;26.50;26.50;;;;;17.40;100.00;101087.22;2104765;27;46827;-57
2024/03/19 04:13:24;;;;;;;;;23.75;22.75;;;;;17.40;100.00;101083.66;2104128;27;46859;-57
2024/03/19 04:14:24;;;;;;;;;23.75;22.00;;;;;17.39;100.00;101090.84;2105470;27;46648;-57
2024/03/19 04:15:24;;;;;;;;;24.75;23.50;;;;;17.26;100.00;101087.81;2104547;27;46403;-57
2024/03/19 04:16:25;;;;;;;;;24.25;23.00;;;;;17.30;100.00;101084.09;2105519;27;46092;-57
2024/03/19 04:17:25;;;;;;;;;21.25;21.25;;;;;17.34;100.00;101084.81;2103501;27;46679;-58
2024/03/19 04:18:25;;;;;;;;;27.75;27.50;;;;;17.35;100.00;101084.75;2103864;27;46471;-61
2024/03/19 04:19:26;;;;;;;;;26.00;23.75;;;;;17.34;100.00;101077.66;2105121;27;47202;-58
2024/03/19 04:20:26;;;;;;;;;24.25;24.25;;;;;17.35;100.00;101083.88;2107839;27;46056;-58
2024/03/19 04:21:26;;;;;;;;;28.75;27.25;;;;;17.36;100.00;101072.22;2105203;27;46990;-59
2024/03/19 04:22:27;;;;;;;;;26.00;23.25;;;;;17.27;100.00;101078.84;2107501;27;46752;-60
2024/03/19 04:23:27;;;;;;;;;30.00;26.00;;;;;17.33;100.00;101069.66;2107179;27;46813;-59
2024/03/19 04:24:27;;;;;;;;;23.50;22.25;;;;;17.31;100.00;101068.88;2107220;27;46267;-59
2024/03/19 04:25:27;;;;;;;;;27.50;26.75;;;;;17.31;100.00;101074.25;2106527;27;46434;-57
2024/03/19 04:26:28;;;;;;;;;30.00;28.25;;;;;17.29;100.00;101081.50;2106608;27;46230;-58
2024/03/19 04:27:29;;;;;;;;;27.25;25.50;;;;;17.28;100.00;101066.34;2106096;27;46501;-60
2024/03/19 04:28:29;;;;;;;;;22.00;22.00;;;;;17.26;100.00;101069.06;2110012;27;46193;-60
2024/03/19 04:29:29;;;;;;;;;26.25;23.50;;;;;17.25;100.00;101071.81;2106356;27;45974;-60
2024/03/19 04:30:30;;;;;;;;;23.00;21.25;;;;;17.25;100.00;101066.44;2107175;27;46621;-58
2024/03/19 04:31:31;;;;;;;;;22.75;21.75;;;;;17.25;100.00;101066.44;2106355;27;46388;-60
2024/03/19 04:32:31;;;;;;;;;23.60;22.80;;;;;17.25;100.00;101072.69;2106972;27;46341;-61